Aviation Digital Data Service (ADDS)

Output produced by METARs form (0928 UTC 28 November 2014)
found at http://www.aviationweather.gov/adds/metars/
 
METAR text: KCCU 280915Z AUTO 25029G35KT 4SM HZ CLR 01/M16 A3036 RMK AO2
Conditions at: KCCU (RED CLIFF PASS , CO, US) observed 0915 UTC 28 November 2014
Temperature: 1.0°C (34°F)
Dewpoint: -16.0°C (3°F) [RH = 27%]
Pressure (altimeter): 30.36 inches Hg (1028.2 mb)
Winds: from the WSW (250 degrees) at 33 MPH (29 knots; 15.1 m/s)
gusting to 40 MPH (35 knots; 18.2 m/s)
Visibility: 4 miles (6 km)
Ceiling: at least 12,000 feet AGL
Clouds: sky clear below 12,000 feet AGL
Weather: HZ  (haze)